Venice, Louisiana
Current Conditions -  °F | °C
As of 6:51 AM on Tuesday 21 Oct 2014 (Local Time) from KBVE Reporting Station
Clear Clear  
Wind Chill: 71°   Ceiling: Unl
Heat Index: 71°   Visibility: 10mi
Dew Point: 58°   Wind: 5mph
Humidity: 63%   Direction: 40°NE
Pressure: 30.01"   Gusts: NA
Location:  29.28°N, 89.36°W
Report Text: KBVE 211151Z AUTO 04004KT 10SM CLR 22/14 A3001 RMK AO2 SLP162 T02170144 10217 20211 53005
Loading
Personal Weather Stations






























Interactive Weather Map
Tropical Storm Tracking
New forecast layout! Learn more

10-Day Weather Forecast

Advertisements
Track Severe Weather on mobile